Cayuta, New York
Current Conditions -  °F | °C
As of 7:53 PM on Saturday 22 Nov 2014 (Local Time) from KELM Reporting Station
Overcast Overcast  
Wind Chill: 35°   Ceiling: 5500
Heat Index: 42°   Visibility: 10mi
Dew Point: 33°   Wind: 14mph
Humidity: 70%   Direction: 250°WSW
Pressure: 30.08"   Gusts: NA
Location:  42.28°N, 76.7°W
Report Text: KELM 230053Z AUTO 25012KT 10SM SCT040 OVC055 06/01 A3008 RMK AO2 SLP195 T00560006
Loading
Personal Weather Stations






























Interactive Weather Map New forecast layout! Learn more

10-Day Weather Forecast

Advertisements
Track Severe Weather on mobile